Jork Reliance — V2CL2 — position and weather

sailwx.info

Track history (hours):
 
Tides and Currents Weather Stations Pressure Air Temp Water Temp Dewpoint Dewpoint Depression Visibility Wind Speed Wind Dir Waves Ship Positions

Jork Reliance

Last reported at 2016-Apr-11 18:10 UTC. Time now 2016-Jun-30 19:37 UTC.
Position N 51°06' W 005°51'.
Warning: this ship's position is months out of date.

Length 141 m; draft 7.6 m.

Type: Ship (hazmat cat A). MMSI: 305033000.

Date/timePositionNaut miles runAvg speedWind from/ knotsBaromVisibWave heightAir tempDewpointWater temp
2016-Apr-11 18:10N 51°06' W 005°51'1016.0
2016-Apr-11 17:33N 50°56' W 005°51'1616.0
2016-Apr-11 16:33N 50°40' W 005°51'1616.0
2016-Apr-11 15:33N 50°24' W 005°52'1716.2
2016-Apr-11 14:31N 50°07' W 005°53'1713.6
2016-Apr-11 13:14N 49°56' W 005°32'1316.2
2016-Apr-11 12:26N 49°54' W 005°12'910.0
2016-Apr-11 11:33N 49°54' W 004°58'1414.2
2016-Apr-11 10:33N 49°57' W 004°37'1313.3
2016-Apr-11 09:33N 49°60' W 004°16'1212.4
2016-Apr-11 08:33N 50°02' W 003°57'1212.0
2016-Apr-11 07:33N 50°04' W 003°39'1312.8
2016-Apr-11 06:33N 50°07' W 003°20'1414.2
2016-Apr-11 05:34N 50°10' W 002°58'1616.1
2016-Apr-11 04:34N 50°13' W 002°33'5116.7
2016-Apr-11 01:30N 50°23' W 001°15'1313.6
2016-Apr-11 00:33N 50°26' W 000°55'1211.7
2016-Apr-10 23:33N 50°28' W 000°37'1111.1
2016-Apr-10 22:33N 50°30' W 000°20'1212.3
2016-Apr-10 21:33N 50°33' W 000°01'1413.6
2016-Apr-10 20:33N 50°36' E 000°19'3014.5
2016-Apr-10 18:28N 50°51' E 001°01'1314.0
2016-Apr-10 17:33N 50°59' E 001°17'1212.4
2016-Apr-10 16:33N 51°07' E 001°32'1010.5
2016-Apr-10 15:34N 51°14' E 001°45'1110.8
2016-Apr-10 14:34N 51°23' E 001°53'1312.9
2016-Apr-10 13:34N 51°33' E 002°06'5913.7
2016-Apr-10 09:13N 52°03' E 003°29'1115.9
2016-Apr-10 08:33N 52°03' E 003°46'1312.8
2016-Apr-10 07:34N 51°59' E 004°06'1211.7
2016-Apr-10 06:33N 51°54' E 004°23'1 1.5
2016-Apr-10 05:33N 51°53' E 004°25'0 0.0
2016-Apr-10 04:33N 51°53' E 004°25'0 0.0
2016-Apr-10 03:33N 51°53' E 004°25'0 0.0
2016-Apr-10 02:33N 51°53' E 004°25'0 0.0
2016-Apr-10 01:34N 51°53' E 004°25'0 0.1
2016-Apr-10 00:33N 51°53' E 004°25'0 0.1
2016-Apr-09 23:33N 51°53' E 004°24'0 0.1
2016-Apr-09 22:33N 51°53' E 004°25'0 0.0
2016-Apr-09 21:33N 51°53' E 004°25'0 0.0
2016-Apr-09 20:33N 51°53' E 004°25'0 0.0
2016-Apr-09 19:33N 51°53' E 004°25'0 0.0
2016-Apr-09 18:33N 51°53' E 004°25'0 0.0
2016-Apr-09 17:33N 51°53' E 004°25'0 0.0
2016-Apr-09 16:33N 51°53' E 004°25'2 2.5
2016-Apr-09 15:33N 51°54' E 004°21'1313.4
2016-Apr-09 14:33N 51°60' E 004°01'1514.5
2016-Apr-09 13:33N 51°58' E 003°38'1716.4
2016-Apr-09 12:32N 51°47' E 003°17'1312.9
2016-Apr-09 11:33N 51°35' E 003°24'1211.8
2016-Apr-09 10:33N 51°26' E 003°36'1111.4
2016-Apr-09 09:33N 51°21' E 003°52'1111.0
2016-Apr-09 08:33N 51°23' E 004°09'5 5.1
2016-Apr-09 07:34N 51°20' E 004°16'0 0.0
2016-Apr-09 06:32N 51°20' E 004°16'0 0.0
2016-Apr-09 05:34N 51°20' E 004°16'0 0.0
2016-Apr-09 04:33N 51°20' E 004°16'0 0.0
2016-Apr-09 03:34N 51°20' E 004°16'0 0.0
2016-Apr-09 02:32N 51°20' E 004°16'0 0.0
2016-Apr-09 01:32N 51°20' E 004°16'0 0.0
2016-Apr-09 00:34N 51°20' E 004°16'0 0.0
2016-Apr-08 23:33N 51°20' E 004°16'0 0.0
2016-Apr-08 22:34N 51°20' E 004°16'0 0.0
2016-Apr-08 21:34N 51°20' E 004°16'0 0.0
2016-Apr-08 20:33N 51°20' E 004°17'0 0.0
2016-Apr-08 19:31N 51°20' E 004°16'0 0.0
2016-Apr-08 18:33N 51°20' E 004°16'0 0.0
2016-Apr-08 17:33N 51°20' E 004°16'0 0.0
2016-Apr-08 16:31N 51°20' E 004°16'0 0.0
2016-Apr-08 15:34N 51°20' E 004°16'0 0.0
2016-Apr-08 14:34N 51°20' E 004°16'8 7.8
2016-Apr-08 13:33N 51°22' E 004°04'1212.4
2016-Apr-08 12:33N 51°22' E 003°45'1312.6
2016-Apr-08 11:34N 51°25' E 003°25'1616.0
2016-Apr-08 10:34N 51°23' E 002°59'1714.0
2016-Apr-08 09:22N 51°22' E 002°33'911.0
2016-Apr-08 08:33N 51°19' E 002°19'1111.1
2016-Apr-08 07:33N 51°13' E 002°04'1111.2
2016-Apr-08 06:33N 51°07' E 001°49'1111.0
2016-Apr-08 05:33N 50°59' E 001°37'1010.1
2016-Apr-08 04:33N 50°51' E 001°28'4511.2
2016-Apr-08 00:31N 50°25' E 000°28'1313.4
2016-Apr-07 23:34N 50°22' E 000°09'1515.0
2016-Apr-07 22:34N 50°19' W 000°14'8717.4
2016-Apr-07 17:33N 50°12' W 002°30'1515.0
2016-Apr-07 16:34N 50°10' W 002°53'1414.4
2016-Apr-07 15:34N 50°08' W 003°15'1413.7
2016-Apr-07 14:34N 50°05' W 003°36'1313.0
2016-Apr-07 13:34N 50°02' W 003°56'1313.0
2016-Apr-07 12:34N 49°60' W 004°15'1313.0
2016-Apr-07 11:33N 49°57' W 004°35'1412.8
2016-Apr-07 10:30N 49°54' W 004°56'8 9.0
2016-Apr-07 09:33N 49°53' W 005°09'1714.8
2016-Apr-07 08:25N 49°54' W 005°35'2812.3
2016-Apr-07 06:09N 50°16' W 006°01'  
2016-Apr-04 20:34N 51°04' W 005°52'1616.2
2016-Apr-04 19:34N 50°48' W 005°52'1616.0
2016-Apr-04 18:33N 50°32' W 005°52'1615.7
2016-Apr-04 17:34N 50°16' W 005°53'1615.0
2016-Apr-04 16:28N 49°60' W 005°52'1314.8
2016-Apr-04 15:33N 49°56' W 005°32'1513.4
2016-Apr-04 14:25N 49°54' W 005°08'7 7.9
2016-Apr-04 13:33N 49°54' W 004°58'1312.9
2016-Apr-04 12:33N 49°57' W 004°38'1413.4
2016-Apr-04 11:33N 49°59' W 004°18'1413.9
2016-Apr-04 10:34N 50°02' W 003°57'1514.6
2016-Apr-04 09:34N 50°05' W 003°35'1414.4
2016-Apr-04 08:33N 50°08' W 003°13'1413.8
2016-Apr-04 07:33N 50°11' W 002°51'1313.0
2016-Apr-04 06:33N 50°13' W 002°31'6212.1
2016-Apr-04 01:26N 50°25' W 000°56'1415.0
2016-Apr-04 00:31N 50°28' W 000°35'1515.0
2016-Apr-03 23:33N 50°31' W 000°13'1514.8
2016-Apr-03 22:34N 50°35' E 000°10'1714.4
2016-Apr-03 21:24N 50°39' E 000°35'2513.3
2016-Apr-03 19:33N 50°53' E 001°07'1514.6
2016-Apr-03 18:33N 51°03' E 001°25'1515.1
2016-Apr-03 17:34N 51°13' E 001°43'1616.0
2016-Apr-03 16:34N 51°27' E 001°55'1414.0
2016-Apr-03 15:33N 51°37' E 002°11'5413.5
2016-Apr-03 11:32N 52°03' E 003°28'1313.4
2016-Apr-03 10:33N 52°02' E 003°50'1212.4
2016-Apr-03 09:34N 51°58' E 004°08'1010.5
2016-Apr-03 08:34N 51°54' E 004°24'1 1.0
2016-Apr-03 07:31N 51°53' E 004°25'0 0.0
2016-Apr-03 06:31N 51°53' E 004°25'0 0.0
2016-Apr-03 05:31N 51°53' E 004°25'0 0.0
2016-Apr-03 04:31N 51°53' E 004°25'0 0.0
2016-Apr-03 03:31N 51°53' E 004°25'0 0.0
2016-Apr-03 02:25N 51°53' E 004°25'0 0.0
2016-Apr-03 01:31N 51°53' E 004°25'0 0.0
2016-Apr-03 00:28N 51°53' E 004°25'0 0.0
2016-Apr-02 23:31N 51°53' E 004°25'0 0.0
2016-Apr-02 22:28N 51°53' E 004°25'0 0.0
2016-Apr-02 21:31N 51°53' E 004°25'0 0.0
2016-Apr-02 20:31N 51°53' E 004°25'0 0.0
2016-Apr-02 19:31N 51°53' E 004°25'2 2.4
2016-Apr-02 18:34N 51°54' E 004°21'10 9.9
2016-Apr-02 17:34N 51°59' E 004°07'1212.4
2016-Apr-02 16:33N 52°00' E 003°47'2310.9
2016-Apr-02 14:28N 51°47' E 003°17'1212.7
2016-Apr-02 13:33N 51°36' E 003°23'1313.0
2016-Apr-02 12:33N 51°26' E 003°37'1212.4
2016-Apr-02 11:34N 51°22' E 003°56'1010.3
2016-Apr-02 10:34N 51°24' E 004°12'5 5.0
2016-Apr-02 09:33N 51°20' E 004°17'0 0.0
2016-Apr-02 08:33N 51°20' E 004°17'0 0.0
2016-Apr-02 07:31N 51°20' E 004°17'0 0.0
2016-Apr-02 06:33N 51°20' E 004°17'0 0.0
2016-Apr-02 05:34N 51°20' E 004°17'0 0.0
2016-Apr-02 04:34N 51°20' E 004°17'0 0.0
2016-Apr-02 03:33N 51°20' E 004°17'0 0.0
2016-Apr-02 02:33N 51°20' E 004°17'0 0.0
2016-Apr-02 01:33N 51°20' E 004°17'0 0.0
2016-Apr-02 00:33N 51°20' E 004°17'0 0.0
2016-Apr-01 23:34N 51°20' E 004°17'0 0.0
2016-Apr-01 22:34N 51°20' E 004°17'0 0.0
2016-Apr-01 21:33N 51°20' E 004°17'0 0.0
2016-Apr-01 20:32N 51°20' E 004°17'0 0.0
2016-Apr-01 19:33N 51°20' E 004°17'2 1.5
2016-Apr-01 18:33N 51°21' E 004°15'  
Track history (hours):
 
Tides and Currents Weather Stations Pressure Air Temp Water Temp Dewpoint Dewpoint Depression Visibility Wind Speed Wind Dir Waves Ship Positions

Jork Reliance

Last reported at 2016-Apr-11 18:10 UTC. Time now 2016-Jun-30 19:37 UTC.
Position N 51°06' W 005°51'.
Warning: this ship's position is months out of date.

Length 141 m; draft 7.6 m.

Type: Ship (hazmat cat A). MMSI: 305033000.

Date/timePositionNaut miles runAvg speedWind from/ knotsBaromVisibWave heightAir tempDewpointWater temp
2016-Apr-11 18:10N 51°06' W 005°51'1016.0
2016-Apr-11 17:33N 50°56' W 005°51'1616.0
2016-Apr-11 16:33N 50°40' W 005°51'1616.0
2016-Apr-11 15:33N 50°24' W 005°52'1716.2
2016-Apr-11 14:31N 50°07' W 005°53'1713.6
2016-Apr-11 13:14N 49°56' W 005°32'1316.2
2016-Apr-11 12:26N 49°54' W 005°12'910.0
2016-Apr-11 11:33N 49°54' W 004°58'1414.2
2016-Apr-11 10:33N 49°57' W 004°37'1313.3
2016-Apr-11 09:33N 49°60' W 004°16'1212.4
2016-Apr-11 08:33N 50°02' W 003°57'1212.0
2016-Apr-11 07:33N 50°04' W 003°39'1312.8
2016-Apr-11 06:33N 50°07' W 003°20'1414.2
2016-Apr-11 05:34N 50°10' W 002°58'1616.1
2016-Apr-11 04:34N 50°13' W 002°33'5116.7
2016-Apr-11 01:30N 50°23' W 001°15'1313.6
2016-Apr-11 00:33N 50°26' W 000°55'1211.7
2016-Apr-10 23:33N 50°28' W 000°37'1111.1
2016-Apr-10 22:33N 50°30' W 000°20'1212.3
2016-Apr-10 21:33N 50°33' W 000°01'1413.6
2016-Apr-10 20:33N 50°36' E 000°19'3014.5
2016-Apr-10 18:28N 50°51' E 001°01'1314.0
2016-Apr-10 17:33N 50°59' E 001°17'1212.4
2016-Apr-10 16:33N 51°07' E 001°32'1010.5
2016-Apr-10 15:34N 51°14' E 001°45'1110.8
2016-Apr-10 14:34N 51°23' E 001°53'1312.9
2016-Apr-10 13:34N 51°33' E 002°06'5913.7
2016-Apr-10 09:13N 52°03' E 003°29'1115.9
2016-Apr-10 08:33N 52°03' E 003°46'1312.8
2016-Apr-10 07:34N 51°59' E 004°06'1211.7
2016-Apr-10 06:33N 51°54' E 004°23'1 1.5
2016-Apr-10 05:33N 51°53' E 004°25'0 0.0
2016-Apr-10 04:33N 51°53' E 004°25'0 0.0
2016-Apr-10 03:33N 51°53' E 004°25'0 0.0
2016-Apr-10 02:33N 51°53' E 004°25'0 0.0
2016-Apr-10 01:34N 51°53' E 004°25'0 0.1
2016-Apr-10 00:33N 51°53' E 004°25'0 0.1
2016-Apr-09 23:33N 51°53' E 004°24'0 0.1
2016-Apr-09 22:33N 51°53' E 004°25'0 0.0
2016-Apr-09 21:33N 51°53' E 004°25'0 0.0
2016-Apr-09 20:33N 51°53' E 004°25'0 0.0
2016-Apr-09 19:33N 51°53' E 004°25'0 0.0
2016-Apr-09 18:33N 51°53' E 004°25'0 0.0
2016-Apr-09 17:33N 51°53' E 004°25'0 0.0
2016-Apr-09 16:33N 51°53' E 004°25'2 2.5
2016-Apr-09 15:33N 51°54' E 004°21'1313.4
2016-Apr-09 14:33N 51°60' E 004°01'1514.5
2016-Apr-09 13:33N 51°58' E 003°38'1716.4
2016-Apr-09 12:32N 51°47' E 003°17'1312.9
2016-Apr-09 11:33N 51°35' E 003°24'1211.8
2016-Apr-09 10:33N 51°26' E 003°36'1111.4
2016-Apr-09 09:33N 51°21' E 003°52'1111.0
2016-Apr-09 08:33N 51°23' E 004°09'5 5.1
2016-Apr-09 07:34N 51°20' E 004°16'0 0.0
2016-Apr-09 06:32N 51°20' E 004°16'0 0.0
2016-Apr-09 05:34N 51°20' E 004°16'0 0.0
2016-Apr-09 04:33N 51°20' E 004°16'0 0.0
2016-Apr-09 03:34N 51°20' E 004°16'0 0.0
2016-Apr-09 02:32N 51°20' E 004°16'0 0.0
2016-Apr-09 01:32N 51°20' E 004°16'0 0.0
2016-Apr-09 00:34N 51°20' E 004°16'0 0.0
2016-Apr-08 23:33N 51°20' E 004°16'0 0.0
2016-Apr-08 22:34N 51°20' E 004°16'0 0.0
2016-Apr-08 21:34N 51°20' E 004°16'0 0.0
2016-Apr-08 20:33N 51°20' E 004°17'0 0.0
2016-Apr-08 19:31N 51°20' E 004°16'0 0.0
2016-Apr-08 18:33N 51°20' E 004°16'0 0.0
2016-Apr-08 17:33N 51°20' E 004°16'0 0.0
2016-Apr-08 16:31N 51°20' E 004°16'0 0.0
2016-Apr-08 15:34N 51°20' E 004°16'0 0.0
2016-Apr-08 14:34N 51°20' E 004°16'8 7.8
2016-Apr-08 13:33N 51°22' E 004°04'1212.4
2016-Apr-08 12:33N 51°22' E 003°45'1312.6
2016-Apr-08 11:34N 51°25' E 003°25'1616.0
2016-Apr-08 10:34N 51°23' E 002°59'1714.0
2016-Apr-08 09:22N 51°22' E 002°33'911.0
2016-Apr-08 08:33N 51°19' E 002°19'1111.1
2016-Apr-08 07:33N 51°13' E 002°04'1111.2
2016-Apr-08 06:33N 51°07' E 001°49'1111.0
2016-Apr-08 05:33N 50°59' E 001°37'1010.1
2016-Apr-08 04:33N 50°51' E 001°28'4511.2
2016-Apr-08 00:31N 50°25' E 000°28'1313.4
2016-Apr-07 23:34N 50°22' E 000°09'1515.0
2016-Apr-07 22:34N 50°19' W 000°14'8717.4
2016-Apr-07 17:33N 50°12' W 002°30'1515.0
2016-Apr-07 16:34N 50°10' W 002°53'1414.4
2016-Apr-07 15:34N 50°08' W 003°15'1413.7
2016-Apr-07 14:34N 50°05' W 003°36'1313.0
2016-Apr-07 13:34N 50°02' W 003°56'1313.0
2016-Apr-07 12:34N 49°60' W 004°15'1313.0
2016-Apr-07 11:33N 49°57' W 004°35'1412.8
2016-Apr-07 10:30N 49°54' W 004°56'8 9.0
2016-Apr-07 09:33N 49°53' W 005°09'1714.8
2016-Apr-07 08:25N 49°54' W 005°35'2812.3
2016-Apr-07 06:09N 50°16' W 006°01'  
2016-Apr-04 20:34N 51°04' W 005°52'1616.2
2016-Apr-04 19:34N 50°48' W 005°52'1616.0
2016-Apr-04 18:33N 50°32' W 005°52'1615.7
2016-Apr-04 17:34N 50°16' W 005°53'1615.0
2016-Apr-04 16:28N 49°60' W 005°52'1314.8
2016-Apr-04 15:33N 49°56' W 005°32'1513.4
2016-Apr-04 14:25N 49°54' W 005°08'7 7.9
2016-Apr-04 13:33N 49°54' W 004°58'1312.9
2016-Apr-04 12:33N 49°57' W 004°38'1413.4
2016-Apr-04 11:33N 49°59' W 004°18'1413.9
2016-Apr-04 10:34N 50°02' W 003°57'1514.6
2016-Apr-04 09:34N 50°05' W 003°35'1414.4
2016-Apr-04 08:33N 50°08' W 003°13'1413.8
2016-Apr-04 07:33N 50°11' W 002°51'1313.0
2016-Apr-04 06:33N 50°13' W 002°31'6212.1
2016-Apr-04 01:26N 50°25' W 000°56'1415.0
2016-Apr-04 00:31N 50°28' W 000°35'1515.0
2016-Apr-03 23:33N 50°31' W 000°13'1514.8
2016-Apr-03 22:34N 50°35' E 000°10'1714.4
2016-Apr-03 21:24N 50°39' E 000°35'2513.3
2016-Apr-03 19:33N 50°53' E 001°07'1514.6
2016-Apr-03 18:33N 51°03' E 001°25'1515.1
2016-Apr-03 17:34N 51°13' E 001°43'1616.0
2016-Apr-03 16:34N 51°27' E 001°55'1414.0
2016-Apr-03 15:33N 51°37' E 002°11'5413.5
2016-Apr-03 11:32N 52°03' E 003°28'1313.4
2016-Apr-03 10:33N 52°02' E 003°50'1212.4
2016-Apr-03 09:34N 51°58' E 004°08'1010.5
2016-Apr-03 08:34N 51°54' E 004°24'1 1.0
2016-Apr-03 07:31N 51°53' E 004°25'0 0.0
2016-Apr-03 06:31N 51°53' E 004°25'0 0.0
2016-Apr-03 05:31N 51°53' E 004°25'0 0.0
2016-Apr-03 04:31N 51°53' E 004°25'0 0.0
2016-Apr-03 03:31N 51°53' E 004°25'0 0.0
2016-Apr-03 02:25N 51°53' E 004°25'0 0.0
2016-Apr-03 01:31N 51°53' E 004°25'0 0.0
2016-Apr-03 00:28N 51°53' E 004°25'0 0.0
2016-Apr-02 23:31N 51°53' E 004°25'0 0.0
2016-Apr-02 22:28N 51°53' E 004°25'0 0.0
2016-Apr-02 21:31N 51°53' E 004°25'0 0.0
2016-Apr-02 20:31N 51°53' E 004°25'0 0.0
2016-Apr-02 19:31N 51°53' E 004°25'2 2.4
2016-Apr-02 18:34N 51°54' E 004°21'10 9.9
2016-Apr-02 17:34N 51°59' E 004°07'1212.4
2016-Apr-02 16:33N 52°00' E 003°47'2310.9
2016-Apr-02 14:28N 51°47' E 003°17'1212.7
2016-Apr-02 13:33N 51°36' E 003°23'1313.0
2016-Apr-02 12:33N 51°26' E 003°37'1212.4
2016-Apr-02 11:34N 51°22' E 003°56'1010.3
2016-Apr-02 10:34N 51°24' E 004°12'5 5.0
2016-Apr-02 09:33N 51°20' E 004°17'0 0.0
2016-Apr-02 08:33N 51°20' E 004°17'0 0.0
2016-Apr-02 07:31N 51°20' E 004°17'0 0.0
2016-Apr-02 06:33N 51°20' E 004°17'0 0.0
2016-Apr-02 05:34N 51°20' E 004°17'0 0.0
2016-Apr-02 04:34N 51°20' E 004°17'0 0.0
2016-Apr-02 03:33N 51°20' E 004°17'0 0.0
2016-Apr-02 02:33N 51°20' E 004°17'0 0.0
2016-Apr-02 01:33N 51°20' E 004°17'0 0.0
2016-Apr-02 00:33N 51°20' E 004°17'0 0.0
2016-Apr-01 23:34N 51°20' E 004°17'0 0.0
2016-Apr-01 22:34N 51°20' E 004°17'0 0.0
2016-Apr-01 21:33N 51°20' E 004°17'0 0.0
2016-Apr-01 20:32N 51°20' E 004°17'0 0.0
2016-Apr-01 19:33N 51°20' E 004°17'2 1.5
2016-Apr-01 18:33N 51°21' E 004°15'  

Dump ship's entire track history